»·PEaware :: N72CS KWJF-49X

N72CS :: KWJF-49X

FLIGHT INFORMATION

Flight Status: Arrived
Operator: Privately registered:
United States
More flights under this callsign
Pilot: Craig S. (32303)
Aircraft: PIPER PA-28 CHEROKEE ARCHER
(P28A)
More flights by this aircraft type
Origin: KWJF Gen Fox
United States
Destination: 49X Chemehuevi Valley
United States
More flights between these airports :: More routes between these airports
Route: ETHER V12 EED
File this flight plan on PilotEdge
Remarks:
Altitude:
(Current/Filed)
9,000ft
Speed:
(Current/Filed)
120kts
Departed: 29-Jan-21 02:55 PM
Arrived: 29-Jan-21 04:22 PM
Distance/Time
Traveled:
187nm/1:26
Distance/Time
To Go:
Arrived

Flight Plot

Page will automatically refresh every two minutes.

Flight plan parsing failed; only flown route is shown


Map Options




Map Legend


Flown Route
Filed Route
Departure Airport
Arrival Airport
Navaid (VOR, NDB)
Fix

Horizontal Profiles

Position Reports

Time Latitude Longitude Heading Altitude Ground
Speed
29-Jan-21 14:41 34.739602 -118.213555 250 2339ft 0kts
29-Jan-21 14:45 34.739602 -118.213555 250 2339ft 0kts
29-Jan-21 14:46 34.739602 -118.213555 250 2339ft 0kts
29-Jan-21 14:48 34.739602 -118.213555 250 2339ft 0kts
29-Jan-21 14:49 34.739602 -118.213555 250 2339ft 0kts
29-Jan-21 14:50 34.739602 -118.213555 250 2339ft 0kts
29-Jan-21 14:51 34.740056 -118.214267 316 2339ft 11kts
29-Jan-21 14:52 34.740671 -118.214778 334 2339ft 0kts
29-Jan-21 14:53 34.743148 -118.207269 59 2336ft 26kts
29-Jan-21 14:54 34.743422 -118.207080 352 2336ft 0kts
29-Jan-21 14:55 34.742222 -118.215350 250 2536ft 70kts
29-Jan-21 14:56 34.729734 -118.227485 153 3577ft 86kts
29-Jan-21 14:57 34.722086 -118.197277 99 4596ft 100kts
29-Jan-21 14:58 34.722822 -118.162549 92 5537ft 104kts
29-Jan-21 14:59 34.721596 -118.127202 105 6421ft 104kts
29-Jan-21 15:00 34.719305 -118.091385 104 7247ft 106kts
29-Jan-21 15:01 34.713590 -118.056162 111 8025ft 106kts
29-Jan-21 15:02 34.709635 -118.019265 107 8705ft 109kts
29-Jan-21 15:03 34.703140 -117.981087 108 8973ft 128kts
29-Jan-21 15:04 34.694867 -117.936898 110 9076ft 139kts
29-Jan-21 15:05 34.683383 -117.890391 113 9001ft 144kts
29-Jan-21 15:06 34.672641 -117.843234 107 8915ft 146kts
29-Jan-21 15:07 34.665550 -117.795106 100 8906ft 143kts
29-Jan-21 15:08 34.664796 -117.746798 83 8903ft 145kts
29-Jan-21 15:09 34.673411 -117.701262 77 8899ft 145kts
29-Jan-21 15:10 34.681149 -117.656531 78 8946ft 143kts
29-Jan-21 15:11 34.686359 -117.609207 92 9011ft 139kts
29-Jan-21 15:12 34.685485 -117.568052 98 9056ft 138kts
29-Jan-21 15:13 34.684612 -117.534727 95 9064ft 139kts
29-Jan-21 15:13 34.684322 -117.502325 92 9006ft 142kts
29-Jan-21 15:14 34.688184 -117.460964 86 8945ft 143kts
29-Jan-21 15:15 34.688943 -117.420138 102 8893ft 140kts
29-Jan-21 15:16 34.699894 -117.366471 77 9025ft 143kts
29-Jan-21 15:17 34.712866 -117.297858 87 8903ft 143kts
29-Jan-21 15:18 34.717451 -117.250297 87 8915ft 141kts
29-Jan-21 15:19 34.720989 -117.203269 90 8913ft 141kts
29-Jan-21 15:20 34.724864 -117.155680 88 8914ft 141kts
29-Jan-21 15:21 34.726594 -117.108528 86 8974ft 137kts
29-Jan-21 15:22 34.726887 -117.062905 90 9015ft 140kts
29-Jan-21 15:23 34.734809 -117.015844 83 9036ft 146kts
29-Jan-21 15:24 34.741307 -116.967766 85 9032ft 145kts
29-Jan-21 15:25 34.747736 -116.921141 88 9016ft 146kts
29-Jan-21 15:26 34.753048 -116.871692 82 9002ft 148kts
29-Jan-21 15:27 34.758612 -116.827610 84 8991ft 148kts
29-Jan-21 15:28 34.763135 -116.777975 122 8731ft 134kts
29-Jan-21 15:29 34.755360 -116.743033 54 8359ft 138kts
29-Jan-21 15:30 34.774011 -116.703584 78 8929ft 138kts
29-Jan-21 15:31 34.779304 -116.663545 85 9178ft 140kts
29-Jan-21 15:32 34.783669 -116.611981 94 8936ft 157kts
29-Jan-21 15:33 34.783299 -116.559811 94 8918ft 151kts
29-Jan-21 15:34 34.788820 -116.508030 77 8919ft 152kts
29-Jan-21 15:35 34.801082 -116.458560 80 8989ft 154kts
29-Jan-21 15:36 34.793311 -116.409890 123 9054ft 144kts
29-Jan-21 15:37 34.778157 -116.364289 106 9128ft 149kts
29-Jan-21 15:38 34.772523 -116.313086 111 9102ft 153kts
29-Jan-21 15:39 34.767524 -116.261405 95 9036ft 156kts
29-Jan-21 15:40 34.770509 -116.208503 83 8984ft 158kts
29-Jan-21 15:41 34.771544 -116.156254 111 8924ft 153kts
29-Jan-21 15:42 34.770039 -116.103887 90 8999ft 152kts
29-Jan-21 15:43 34.771118 -116.051551 90 9049ft 155kts
29-Jan-21 15:44 34.774936 -115.999644 84 9132ft 154kts
29-Jan-21 15:45 34.780187 -115.947771 82 9145ft 152kts
29-Jan-21 15:46 34.786209 -115.895698 85 9149ft 154kts
29-Jan-21 15:47 34.789100 -115.842600 90 9083ft 156kts
29-Jan-21 15:48 34.785884 -115.789991 103 9003ft 155kts
29-Jan-21 15:49 34.777153 -115.738238 102 8948ft 155kts
29-Jan-21 15:50 34.770394 -115.686732 104 8927ft 154kts
29-Jan-21 15:51 34.765808 -115.635193 98 9015ft 151kts
29-Jan-21 15:52 34.764189 -115.583380 90 9063ft 154kts
29-Jan-21 15:53 34.765547 -115.530853 91 9121ft 154kts
29-Jan-21 15:54 34.767076 -115.478695 84 9177ft 155kts
29-Jan-21 15:55 34.776776 -115.426822 86 9102ft 160kts
29-Jan-21 15:56 34.773857 -115.374954 95 9046ft 158kts
29-Jan-21 15:57 34.771559 -115.321673 90 8960ft 158kts
29-Jan-21 15:58 34.771824 -115.271128 91 8889ft 156kts
29-Jan-21 15:59 34.774774 -115.232974 79 8919ft 155kts
29-Jan-21 16:00 34.777138 -115.194131 85 8913ft 156kts
29-Jan-21 16:01 34.778966 -115.148595 89 8892ft 158kts
29-Jan-21 16:02 34.777102 -115.105159 100 8873ft 160kts
29-Jan-21 16:03 34.772997 -115.055591 95 8887ft 162kts
29-Jan-21 16:04 34.770210 -115.004147 95 8897ft 165kts
29-Jan-21 16:05 34.754622 -114.957986 125 8975ft 158kts
29-Jan-21 16:06 34.735811 -114.911624 128 9125ft 154kts
29-Jan-21 16:07 34.716364 -114.869187 131 9038ft 153kts
29-Jan-21 16:09 34.694179 -114.814205 126 8977ft 149kts
29-Jan-21 16:10 34.664316 -114.756299 146 8430ft 127kts
29-Jan-21 16:11 34.644099 -114.721588 141 7436ft 121kts
29-Jan-21 16:12 34.624717 -114.688975 139 6419ft 114kts
29-Jan-21 16:13 34.606938 -114.656948 133 5392ft 113kts
29-Jan-21 16:14 34.600625 -114.618068 97 4793ft 130kts
29-Jan-21 16:15 34.602468 -114.575138 103 4875ft 122kts
29-Jan-21 16:16 34.600426 -114.533204 105 4778ft 118kts
29-Jan-21 16:17 34.596383 -114.494534 115 3537ft 112kts
29-Jan-21 16:18 34.580241 -114.467024 211 3033ft 133kts
29-Jan-21 16:19 34.560431 -114.465290 97 2040ft 99kts
29-Jan-21 16:20 34.558522 -114.436385 114 1466ft 81kts
29-Jan-21 16:21 34.539111 -114.432041 172 720ft 74kts
29-Jan-21 16:22 34.528873 -114.431563 86 623ft 20kts
29-Jan-21 16:23 34.528909 -114.430241 88 620ft 0kts
29-Jan-21 16:24 34.528909 -114.430241 88 620ft 0kts

Navigation Log

Ident Type
Flight plan parsing failed, navigation log unavailable